sensor_id;sensor_type;location;lat;lon;timestamp;temperature;humidity
52024;DHT22;38038;45.922;13.604;2023-05-16T00:01:49;17.60;99.90
52024;DHT22;38038;45.922;13.604;2023-05-16T00:04:15;17.70;99.90
52024;DHT22;38038;45.922;13.604;2023-05-16T00:06:42;17.70;99.90
52024;DHT22;38038;45.922;13.604;2023-05-16T00:09:07;17.60;99.90
52024;DHT22;38038;45.922;13.604;2023-05-16T00:11:33;17.60;99.90
52024;DHT22;38038;45.922;13.604;2023-05-16T00:13:59;17.50;99.90
52024;DHT22;38038;45.922;13.604;2023-05-16T00:16:26;17.30;99.90
52024;DHT22;38038;45.922;13.604;2023-05-16T00:18:54;17.20;99.90
52024;DHT22;38038;45.922;13.604;2023-05-16T00:21:22;17.20;99.90
52024;DHT22;38038;45.922;13.604;2023-05-16T00:23:48;17.20;99.90
52024;DHT22;38038;45.922;13.604;2023-05-16T00:26:14;16.80;99.90
52024;DHT22;38038;45.922;13.604;2023-05-16T00:28:39;16.50;99.90
52024;DHT22;38038;45.922;13.604;2023-05-16T00:31:05;16.50;99.90
52024;DHT22;38038;45.922;13.604;2023-05-16T00:33:31;16.40;99.90
52024;DHT22;38038;45.922;13.604;2023-05-16T00:35:56;16.40;99.90
52024;DHT22;38038;45.922;13.604;2023-05-16T00:38:24;16.30;99.90
52024;DHT22;38038;45.922;13.604;2023-05-16T00:40:50;16.20;99.90
52024;DHT22;38038;45.922;13.604;2023-05-16T00:43:16;16.00;99.90
52024;DHT22;38038;45.922;13.604;2023-05-16T00:45:42;16.10;99.90
52024;DHT22;38038;45.922;13.604;2023-05-16T00:48:08;15.80;99.90
52024;DHT22;38038;45.922;13.604;2023-05-16T00:50:35;15.50;99.90
52024;DHT22;38038;45.922;13.604;2023-05-16T00:53:01;15.50;99.90
52024;DHT22;38038;45.922;13.604;2023-05-16T00:55:27;15.50;99.90
52024;DHT22;38038;45.922;13.604;2023-05-16T00:57:53;15.60;99.90
52024;DHT22;38038;45.922;13.604;2023-05-16T01:00:19;15.60;99.90
52024;DHT22;38038;45.922;13.604;2023-05-16T01:02:45;15.60;99.90
52024;DHT22;38038;45.922;13.604;2023-05-16T01:05:11;15.50;99.90
52024;DHT22;38038;45.922;13.604;2023-05-16T01:07:37;15.60;99.90
52024;DHT22;38038;45.922;13.604;2023-05-16T01:10:05;15.90;99.90
52024;DHT22;38038;45.922;13.604;2023-05-16T01:15:24;15.90;99.90
52024;DHT22;38038;45.922;13.604;2023-05-16T01:18:05;15.80;99.90
52024;DHT22;38038;45.922;13.604;2023-05-16T01:21:28;15.70;99.90
52024;DHT22;38038;45.922;13.604;2023-05-16T01:23:48;15.60;99.90
52024;DHT22;38038;45.922;13.604;2023-05-16T01:26:23;15.70;99.90
52024;DHT22;38038;45.922;13.604;2023-05-16T01:28:51;15.80;99.90
52024;DHT22;38038;45.922;13.604;2023-05-16T01:31:18;15.90;99.90
52024;DHT22;38038;45.922;13.604;2023-05-16T01:33:44;16.00;99.90
52024;DHT22;38038;45.922;13.604;2023-05-16T01:44:32;16.30;99.90
52024;DHT22;38038;45.922;13.604;2023-05-16T01:47:02;16.50;99.90
52024;DHT22;38038;45.922;13.604;2023-05-16T01:49:38;16.40;99.90
52024;DHT22;38038;45.922;13.604;2023-05-16T01:52:12;16.40;99.90
52024;DHT22;38038;45.922;13.604;2023-05-16T01:54:42;16.40;99.90
52024;DHT22;38038;45.922;13.604;2023-05-16T01:57:09;16.30;99.90
52024;DHT22;38038;45.922;13.604;2023-05-16T01:59:38;16.30;99.90
52024;DHT22;38038;45.922;13.604;2023-05-16T02:02:03;16.30;99.90
52024;DHT22;38038;45.922;13.604;2023-05-16T02:04:29;16.50;99.90
52024;DHT22;38038;45.922;13.604;2023-05-16T02:06:55;16.50;99.90
52024;DHT22;38038;45.922;13.604;2023-05-16T02:09:21;16.50;99.90
52024;DHT22;38038;45.922;13.604;2023-05-16T02:11:47;16.60;99.90
52024;DHT22;38038;45.922;13.604;2023-05-16T02:14:13;16.70;99.90
52024;DHT22;38038;45.922;13.604;2023-05-16T02:16:39;16.70;99.90
52024;DHT22;38038;45.922;13.604;2023-05-16T02:19:04;16.70;99.90
52024;DHT22;38038;45.922;13.604;2023-05-16T02:21:30;16.60;99.90
52024;DHT22;38038;45.922;13.604;2023-05-16T02:23:56;16.70;99.90
52024;DHT22;38038;45.922;13.604;2023-05-16T02:26:21;16.60;99.90
52024;DHT22;38038;45.922;13.604;2023-05-16T02:28:47;16.50;99.90
52024;DHT22;38038;45.922;13.604;2023-05-16T02:31:26;16.50;99.90
52024;DHT22;38038;45.922;13.604;2023-05-16T02:33:52;16.50;99.90
52024;DHT22;38038;45.922;13.604;2023-05-16T02:36:18;16.50;99.90
52024;DHT22;38038;45.922;13.604;2023-05-16T02:38:43;16.50;99.90
52024;DHT22;38038;45.922;13.604;2023-05-16T02:41:09;16.80;99.90
52024;DHT22;38038;45.922;13.604;2023-05-16T02:43:34;16.80;99.90
52024;DHT22;38038;45.922;13.604;2023-05-16T02:46:03;16.70;99.90
52024;DHT22;38038;45.922;13.604;2023-05-16T02:48:28;16.80;99.90
52024;DHT22;38038;45.922;13.604;2023-05-16T02:50:54;16.70;99.90
52024;DHT22;38038;45.922;13.604;2023-05-16T02:53:20;16.70;99.90
52024;DHT22;38038;45.922;13.604;2023-05-16T02:55:46;16.80;99.90
52024;DHT22;38038;45.922;13.604;2023-05-16T02:58:11;16.70;99.90
52024;DHT22;38038;45.922;13.604;2023-05-16T03:00:38;16.60;99.90
52024;DHT22;38038;45.922;13.604;2023-05-16T03:03:04;16.50;99.90
52024;DHT22;38038;45.922;13.604;2023-05-16T03:05:30;16.50;99.90
52024;DHT22;38038;45.922;13.604;2023-05-16T03:07:56;16.80;99.90
52024;DHT22;38038;45.922;13.604;2023-05-16T03:10:22;16.70;99.90
52024;DHT22;38038;45.922;13.604;2023-05-16T03:12:47;16.90;99.90
52024;DHT22;38038;45.922;13.604;2023-05-16T03:15:13;16.90;99.90
52024;DHT22;38038;45.922;13.604;2023-05-16T03:17:39;16.80;99.90
52024;DHT22;38038;45.922;13.604;2023-05-16T03:20:05;16.80;99.90
52024;DHT22;38038;45.922;13.604;2023-05-16T03:22:34;16.90;99.90
52024;DHT22;38038;45.922;13.604;2023-05-16T03:25:00;16.90;99.90
52024;DHT22;38038;45.922;13.604;2023-05-16T03:27:26;16.80;99.90
52024;DHT22;38038;45.922;13.604;2023-05-16T03:29:52;16.60;99.90
52024;DHT22;38038;45.922;13.604;2023-05-16T03:32:17;16.60;99.90
52024;DHT22;38038;45.922;13.604;2023-05-16T03:34:43;16.80;99.90
52024;DHT22;38038;45.922;13.604;2023-05-16T03:37:09;17.10;99.90
52024;DHT22;38038;45.922;13.604;2023-05-16T03:39:35;17.10;99.90
52024;DHT22;38038;45.922;13.604;2023-05-16T03:42:01;17.10;99.90
52024;DHT22;38038;45.922;13.604;2023-05-16T03:44:26;17.00;99.90
52024;DHT22;38038;45.922;13.604;2023-05-16T03:46:52;17.00;99.90
52024;DHT22;38038;45.922;13.604;2023-05-16T03:49:19;16.90;99.90
52024;DHT22;38038;45.922;13.604;2023-05-16T03:51:45;17.10;99.90
52024;DHT22;38038;45.922;13.604;2023-05-16T03:54:11;17.10;99.90
52024;DHT22;38038;45.922;13.604;2023-05-16T03:56:36;17.00;99.90
52024;DHT22;38038;45.922;13.604;2023-05-16T03:59:02;17.00;99.90
52024;DHT22;38038;45.922;13.604;2023-05-16T04:01:28;17.00;99.90
52024;DHT22;38038;45.922;13.604;2023-05-16T04:03:54;16.90;99.90
52024;DHT22;38038;45.922;13.604;2023-05-16T04:06:20;16.90;99.90
52024;DHT22;38038;45.922;13.604;2023-05-16T04:08:45;16.90;99.90
52024;DHT22;38038;45.922;13.604;2023-05-16T04:11:11;16.70;99.90
52024;DHT22;38038;45.922;13.604;2023-05-16T04:13:37;16.60;99.90
52024;DHT22;38038;45.922;13.604;2023-05-16T04:16:02;16.80;99.90
52024;DHT22;38038;45.922;13.604;2023-05-16T04:18:28;17.10;99.70
52024;DHT22;38038;45.922;13.604;2023-05-16T04:20:54;17.20;99.90
52024;DHT22;38038;45.922;13.604;2023-05-16T04:23:19;17.00;99.90
52024;DHT22;38038;45.922;13.604;2023-05-16T04:25:45;16.90;99.90
52024;DHT22;38038;45.922;13.604;2023-05-16T04:28:11;16.80;99.90
52024;DHT22;38038;45.922;13.604;2023-05-16T04:30:36;16.80;99.90
52024;DHT22;38038;45.922;13.604;2023-05-16T04:33:02;16.90;99.70
52024;DHT22;38038;45.922;13.604;2023-05-16T04:35:28;17.00;99.90
52024;DHT22;38038;45.922;13.604;2023-05-16T04:37:54;16.90;99.90
52024;DHT22;38038;45.922;13.604;2023-05-16T04:40:20;16.90;99.90
52024;DHT22;38038;45.922;13.604;2023-05-16T04:42:46;16.70;99.90
52024;DHT22;38038;45.922;13.604;2023-05-16T04:45:11;16.80;99.60
52024;DHT22;38038;45.922;13.604;2023-05-16T04:47:39;16.90;99.90
52024;DHT22;38038;45.922;13.604;2023-05-16T04:50:05;17.10;99.30
52024;DHT22;38038;45.922;13.604;2023-05-16T04:52:33;17.00;99.90
52024;DHT22;38038;45.922;13.604;2023-05-16T04:54:59;16.70;99.90
52024;DHT22;38038;45.922;13.604;2023-05-16T04:57:25;16.90;99.90
52024;DHT22;38038;45.922;13.604;2023-05-16T04:59:52;16.80;99.90
52024;DHT22;38038;45.922;13.604;2023-05-16T05:02:17;16.60;99.90
52024;DHT22;38038;45.922;13.604;2023-05-16T05:04:43;16.30;99.90
52024;DHT22;38038;45.922;13.604;2023-05-16T05:07:09;16.20;99.90
52024;DHT22;38038;45.922;13.604;2023-05-16T05:09:35;16.10;99.90
52024;DHT22;38038;45.922;13.604;2023-05-16T05:12:00;16.00;99.90
52024;DHT22;38038;45.922;13.604;2023-05-16T05:14:26;15.90;99.90
52024;DHT22;38038;45.922;13.604;2023-05-16T05:16:52;15.80;99.90
52024;DHT22;38038;45.922;13.604;2023-05-16T05:19:17;15.80;99.90
52024;DHT22;38038;45.922;13.604;2023-05-16T05:21:43;15.60;99.90
52024;DHT22;38038;45.922;13.604;2023-05-16T05:24:09;15.60;99.90
52024;DHT22;38038;45.922;13.604;2023-05-16T05:26:34;15.40;99.90
52024;DHT22;38038;45.922;13.604;2023-05-16T05:29:00;16.10;99.90
52024;DHT22;38038;45.922;13.604;2023-05-16T05:31:26;16.10;99.90
52024;DHT22;38038;45.922;13.604;2023-05-16T05:33:52;16.20;99.90
52024;DHT22;38038;45.922;13.604;2023-05-16T05:36:17;16.20;99.90
52024;DHT22;38038;45.922;13.604;2023-05-16T05:38:43;16.20;99.90
52024;DHT22;38038;45.922;13.604;2023-05-16T05:41:09;16.20;99.90
52024;DHT22;38038;45.922;13.604;2023-05-16T05:43:36;16.00;99.90
52024;DHT22;38038;45.922;13.604;2023-05-16T05:46:01;16.00;99.90
52024;DHT22;38038;45.922;13.604;2023-05-16T05:48:27;15.90;99.90
52024;DHT22;38038;45.922;13.604;2023-05-16T05:50:54;15.90;99.90
52024;DHT22;38038;45.922;13.604;2023-05-16T05:53:20;15.90;99.90
52024;DHT22;38038;45.922;13.604;2023-05-16T05:55:46;16.00;99.90
52024;DHT22;38038;45.922;13.604;2023-05-16T05:58:12;16.00;99.90
52024;DHT22;38038;45.922;13.604;2023-05-16T06:00:37;16.10;99.90
52024;DHT22;38038;45.922;13.604;2023-05-16T06:03:03;16.20;99.90
52024;DHT22;38038;45.922;13.604;2023-05-16T06:05:29;16.30;99.90
52024;DHT22;38038;45.922;13.604;2023-05-16T06:07:55;16.40;99.90
52024;DHT22;38038;45.922;13.604;2023-05-16T06:10:20;16.40;99.90
52024;DHT22;38038;45.922;13.604;2023-05-16T06:12:46;16.40;99.90
52024;DHT22;38038;45.922;13.604;2023-05-16T06:15:12;16.50;99.90
52024;DHT22;38038;45.922;13.604;2023-05-16T06:17:37;16.60;99.90
52024;DHT22;38038;45.922;13.604;2023-05-16T06:20:03;16.70;99.90
52024;DHT22;38038;45.922;13.604;2023-05-16T06:22:30;16.70;99.90
52024;DHT22;38038;45.922;13.604;2023-05-16T06:24:57;16.80;99.90
52024;DHT22;38038;45.922;13.604;2023-05-16T06:27:22;16.80;99.90
52024;DHT22;38038;45.922;13.604;2023-05-16T06:29:51;16.80;99.90
52024;DHT22;38038;45.922;13.604;2023-05-16T06:32:16;16.80;99.90
52024;DHT22;38038;45.922;13.604;2023-05-16T06:34:42;16.80;99.90
52024;DHT22;38038;45.922;13.604;2023-05-16T06:37:08;16.80;99.80
52024;DHT22;38038;45.922;13.604;2023-05-16T06:39:43;17.00;99.90
52024;DHT22;38038;45.922;13.604;2023-05-16T06:42:12;16.90;99.90
52024;DHT22;38038;45.922;13.604;2023-05-16T06:44:43;16.90;99.90
52024;DHT22;38038;45.922;13.604;2023-05-16T06:47:21;16.80;99.90
52024;DHT22;38038;45.922;13.604;2023-05-16T06:49:49;16.90;99.90
52024;DHT22;38038;45.922;13.604;2023-05-16T06:52:15;16.90;99.90
52024;DHT22;38038;45.922;13.604;2023-05-16T06:54:41;16.90;99.90
52024;DHT22;38038;45.922;13.604;2023-05-16T06:57:07;16.90;99.90
52024;DHT22;38038;45.922;13.604;2023-05-16T06:59:35;16.80;99.90
52024;DHT22;38038;45.922;13.604;2023-05-16T07:02:01;16.90;99.90
52024;DHT22;38038;45.922;13.604;2023-05-16T07:04:27;16.90;99.90
52024;DHT22;38038;45.922;13.604;2023-05-16T07:06:52;17.00;99.90
52024;DHT22;38038;45.922;13.604;2023-05-16T07:09:20;16.90;99.90
52024;DHT22;38038;45.922;13.604;2023-05-16T07:11:45;16.80;99.90
52024;DHT22;38038;45.922;13.604;2023-05-16T07:14:11;16.80;99.90
52024;DHT22;38038;45.922;13.604;2023-05-16T07:16:37;16.70;99.90
52024;DHT22;38038;45.922;13.604;2023-05-16T07:19:03;16.70;99.90
52024;DHT22;38038;45.922;13.604;2023-05-16T07:21:29;16.60;99.90
52024;DHT22;38038;45.922;13.604;2023-05-16T07:23:54;16.40;99.90
52024;DHT22;38038;45.922;13.604;2023-05-16T07:26:20;16.30;99.90
52024;DHT22;38038;45.922;13.604;2023-05-16T07:28:49;16.20;99.90
52024;DHT22;38038;45.922;13.604;2023-05-16T07:31:15;16.00;99.90
52024;DHT22;38038;45.922;13.604;2023-05-16T07:33:44;16.10;99.90
52024;DHT22;38038;45.922;13.604;2023-05-16T07:36:12;16.10;99.90
52024;DHT22;38038;45.922;13.604;2023-05-16T07:38:37;16.20;99.90
52024;DHT22;38038;45.922;13.604;2023-05-16T07:41:03;16.20;99.90
52024;DHT22;38038;45.922;13.604;2023-05-16T07:43:29;15.90;99.90
52024;DHT22;38038;45.922;13.604;2023-05-16T07:45:55;15.60;99.90
52024;DHT22;38038;45.922;13.604;2023-05-16T07:48:20;15.60;99.90
52024;DHT22;38038;45.922;13.604;2023-05-16T07:50:46;15.70;99.90
52024;DHT22;38038;45.922;13.604;2023-05-16T07:53:12;15.60;99.90
52024;DHT22;38038;45.922;13.604;2023-05-16T07:55:37;15.70;99.90
52024;DHT22;38038;45.922;13.604;2023-05-16T07:58:03;15.70;99.90
52024;DHT22;38038;45.922;13.604;2023-05-16T08:00:29;15.70;99.90
52024;DHT22;38038;45.922;13.604;2023-05-16T08:02:56;15.70;99.90
52024;DHT22;38038;45.922;13.604;2023-05-16T08:05:22;15.50;99.90
52024;DHT22;38038;45.922;13.604;2023-05-16T08:07:48;15.40;99.90
52024;DHT22;38038;45.922;13.604;2023-05-16T08:10:14;15.60;99.90
52024;DHT22;38038;45.922;13.604;2023-05-16T08:12:40;15.60;99.90
52024;DHT22;38038;45.922;13.604;2023-05-16T08:15:06;15.50;99.90
52024;DHT22;38038;45.922;13.604;2023-05-16T08:17:32;15.40;99.90
52024;DHT22;38038;45.922;13.604;2023-05-16T08:19:58;15.40;99.90
52024;DHT22;38038;45.922;13.604;2023-05-16T08:22:26;15.50;99.90
52024;DHT22;38038;45.922;13.604;2023-05-16T08:24:52;15.50;99.90
52024;DHT22;38038;45.922;13.604;2023-05-16T08:27:27;15.60;99.90
52024;DHT22;38038;45.922;13.604;2023-05-16T08:29:53;15.70;99.90
52024;DHT22;38038;45.922;13.604;2023-05-16T08:32:20;15.80;99.90
52024;DHT22;38038;45.922;13.604;2023-05-16T08:34:46;15.90;99.90
52024;DHT22;38038;45.922;13.604;2023-05-16T08:37:12;16.10;99.90
52024;DHT22;38038;45.922;13.604;2023-05-16T08:39:38;16.10;99.90
52024;DHT22;38038;45.922;13.604;2023-05-16T08:42:04;16.30;99.90
52024;DHT22;38038;45.922;13.604;2023-05-16T08:44:30;16.50;99.90
52024;DHT22;38038;45.922;13.604;2023-05-16T08:46:56;16.50;99.90
52024;DHT22;38038;45.922;13.604;2023-05-16T08:49:26;16.70;99.90
52024;DHT22;38038;45.922;13.604;2023-05-16T08:51:56;16.70;99.90
52024;DHT22;38038;45.922;13.604;2023-05-16T08:54:23;16.80;99.90
52024;DHT22;38038;45.922;13.604;2023-05-16T08:56:49;17.10;99.90
52024;DHT22;38038;45.922;13.604;2023-05-16T08:59:15;17.20;99.90
52024;DHT22;38038;45.922;13.604;2023-05-16T09:01:42;17.30;99.90
52024;DHT22;38038;45.922;13.604;2023-05-16T09:04:09;17.40;99.10
52024;DHT22;38038;45.922;13.604;2023-05-16T09:06:37;17.40;97.70
52024;DHT22;38038;45.922;13.604;2023-05-16T09:09:03;17.40;98.70
52024;DHT22;38038;45.922;13.604;2023-05-16T09:11:32;17.50;97.90
52024;DHT22;38038;45.922;13.604;2023-05-16T09:13:58;17.70;99.50
52024;DHT22;38038;45.922;13.604;2023-05-16T09:16:23;17.90;98.30
52024;DHT22;38038;45.922;13.604;2023-05-16T09:18:57;18.10;98.00
52024;DHT22;38038;45.922;13.604;2023-05-16T09:21:31;18.30;96.90
52024;DHT22;38038;45.922;13.604;2023-05-16T09:24:07;18.30;96.90
52024;DHT22;38038;45.922;13.604;2023-05-16T09:26:34;18.40;96.60
52024;DHT22;38038;45.922;13.604;2023-05-16T09:29:01;18.50;95.70
52024;DHT22;38038;45.922;13.604;2023-05-16T09:31:28;18.50;96.90
52024;DHT22;38038;45.922;13.604;2023-05-16T09:34:03;18.50;96.30
52024;DHT22;38038;45.922;13.604;2023-05-16T09:36:31;18.70;95.60
52024;DHT22;38038;45.922;13.604;2023-05-16T09:38:56;19.10;98.20
52024;DHT22;38038;45.922;13.604;2023-05-16T09:41:22;19.30;94.60
52024;DHT22;38038;45.922;13.604;2023-05-16T09:43:48;19.30;95.20
52024;DHT22;38038;45.922;13.604;2023-05-16T09:46:14;19.30;95.50
52024;DHT22;38038;45.922;13.604;2023-05-16T09:48:41;19.20;94.80
52024;DHT22;38038;45.922;13.604;2023-05-16T09:51:11;19.20;95.10
52024;DHT22;38038;45.922;13.604;2023-05-16T09:53:37;19.00;95.80
52024;DHT22;38038;45.922;13.604;2023-05-16T09:56:05;18.90;95.10
52024;DHT22;38038;45.922;13.604;2023-05-16T09:58:33;18.90;94.20
52024;DHT22;38038;45.922;13.604;2023-05-16T10:00:59;18.90;94.70
52024;DHT22;38038;45.922;13.604;2023-05-16T10:03:26;18.90;94.80
52024;DHT22;38038;45.922;13.604;2023-05-16T10:05:55;18.80;94.90
52024;DHT22;38038;45.922;13.604;2023-05-16T10:08:22;18.70;95.00
52024;DHT22;38038;45.922;13.604;2023-05-16T10:10:51;18.60;95.50
52024;DHT22;38038;45.922;13.604;2023-05-16T10:13:21;18.50;95.40
52024;DHT22;38038;45.922;13.604;2023-05-16T10:15:49;18.50;95.10
52024;DHT22;38038;45.922;13.604;2023-05-16T10:18:21;18.40;95.80
52024;DHT22;38038;45.922;13.604;2023-05-16T10:20:49;18.40;96.00
52024;DHT22;38038;45.922;13.604;2023-05-16T10:23:18;18.30;96.50
52024;DHT22;38038;45.922;13.604;2023-05-16T10:25:45;18.30;95.90
52024;DHT22;38038;45.922;13.604;2023-05-16T10:28:12;18.30;96.50
52024;DHT22;38038;45.922;13.604;2023-05-16T10:30:44;18.30;97.10
52024;DHT22;38038;45.922;13.604;2023-05-16T10:33:14;18.30;96.90
52024;DHT22;38038;45.922;13.604;2023-05-16T10:35:41;18.20;96.50
52024;DHT22;38038;45.922;13.604;2023-05-16T10:38:08;18.20;97.20
52024;DHT22;38038;45.922;13.604;2023-05-16T10:40:37;18.10;97.80
52024;DHT22;38038;45.922;13.604;2023-05-16T10:43:05;18.00;98.40
52024;DHT22;38038;45.922;13.604;2023-05-16T10:45:31;17.80;99.90
52024;DHT22;38038;45.922;13.604;2023-05-16T10:47:57;17.50;99.90
52024;DHT22;38038;45.922;13.604;2023-05-16T10:50:31;17.20;99.90
52024;DHT22;38038;45.922;13.604;2023-05-16T10:53:13;17.10;99.90
52024;DHT22;38038;45.922;13.604;2023-05-16T10:58:48;17.20;99.90
52024;DHT22;38038;45.922;13.604;2023-05-16T11:01:32;17.10;99.90
52024;DHT22;38038;45.922;13.604;2023-05-16T11:03:59;16.60;99.90
52024;DHT22;38038;45.922;13.604;2023-05-16T11:06:49;16.40;99.90
52024;DHT22;38038;45.922;13.604;2023-05-16T11:14:08;15.80;99.90
52024;DHT22;38038;45.922;13.604;2023-05-16T11:16:35;15.70;99.90
52024;DHT22;38038;45.922;13.604;2023-05-16T11:19:07;15.70;99.90
52024;DHT22;38038;45.922;13.604;2023-05-16T11:22:04;15.80;99.90
52024;DHT22;38038;45.922;13.604;2023-05-16T11:24:31;15.70;99.90
52024;DHT22;38038;45.922;13.604;2023-05-16T11:26:59;15.60;99.90
52024;DHT22;38038;45.922;13.604;2023-05-16T11:29:27;15.50;99.90
52024;DHT22;38038;45.922;13.604;2023-05-16T11:31:53;15.40;99.90
52024;DHT22;38038;45.922;13.604;2023-05-16T11:34:19;15.40;99.90
52024;DHT22;38038;45.922;13.604;2023-05-16T11:36:44;15.20;99.90
52024;DHT22;38038;45.922;13.604;2023-05-16T11:39:10;15.30;99.90
52024;DHT22;38038;45.922;13.604;2023-05-16T11:41:37;15.30;99.90
52024;DHT22;38038;45.922;13.604;2023-05-16T11:44:03;15.20;99.90
52024;DHT22;38038;45.922;13.604;2023-05-16T11:46:32;15.10;99.90
52024;DHT22;38038;45.922;13.604;2023-05-16T11:48:58;14.90;99.90
52024;DHT22;38038;45.922;13.604;2023-05-16T11:51:23;14.80;99.90
52024;DHT22;38038;45.922;13.604;2023-05-16T11:53:49;14.80;99.90
52024;DHT22;38038;45.922;13.604;2023-05-16T11:56:15;14.70;99.90
52024;DHT22;38038;45.922;13.604;2023-05-16T11:58:41;14.80;99.90
52024;DHT22;38038;45.922;13.604;2023-05-16T12:01:07;14.70;99.90
52024;DHT22;38038;45.922;13.604;2023-05-16T12:03:34;14.70;99.90
52024;DHT22;38038;45.922;13.604;2023-05-16T12:06:01;14.70;99.90
52024;DHT22;38038;45.922;13.604;2023-05-16T12:08:27;14.70;99.90
52024;DHT22;38038;45.922;13.604;2023-05-16T12:10:53;14.70;99.90
52024;DHT22;38038;45.922;13.604;2023-05-16T12:13:20;14.80;99.90
52024;DHT22;38038;45.922;13.604;2023-05-16T12:15:47;14.80;99.90
52024;DHT22;38038;45.922;13.604;2023-05-16T12:18:14;14.80;99.90
52024;DHT22;38038;45.922;13.604;2023-05-16T12:20:41;14.80;99.90
52024;DHT22;38038;45.922;13.604;2023-05-16T12:23:11;14.70;99.90
52024;DHT22;38038;45.922;13.604;2023-05-16T12:25:38;14.70;99.90
52024;DHT22;38038;45.922;13.604;2023-05-16T12:28:11;14.70;99.90
52024;DHT22;38038;45.922;13.604;2023-05-16T12:30:40;14.70;99.90
52024;DHT22;38038;45.922;13.604;2023-05-16T12:33:08;14.60;99.90
52024;DHT22;38038;45.922;13.604;2023-05-16T12:35:36;14.50;99.90
52024;DHT22;38038;45.922;13.604;2023-05-16T12:38:07;14.60;99.90
52024;DHT22;38038;45.922;13.604;2023-05-16T12:40:35;14.70;99.90
52024;DHT22;38038;45.922;13.604;2023-05-16T12:43:01;14.80;99.90
52024;DHT22;38038;45.922;13.604;2023-05-16T12:45:27;14.80;99.90
52024;DHT22;38038;45.922;13.604;2023-05-16T12:47:53;14.80;99.90
52024;DHT22;38038;45.922;13.604;2023-05-16T12:50:19;14.90;99.90
52024;DHT22;38038;45.922;13.604;2023-05-16T12:52:49;14.70;99.90
52024;DHT22;38038;45.922;13.604;2023-05-16T12:55:19;14.80;99.90
52024;DHT22;38038;45.922;13.604;2023-05-16T12:57:45;14.80;99.90
52024;DHT22;38038;45.922;13.604;2023-05-16T13:00:16;14.70;99.90
52024;DHT22;38038;45.922;13.604;2023-05-16T13:02:46;14.60;99.90
52024;DHT22;38038;45.922;13.604;2023-05-16T13:05:12;14.60;99.90
52024;DHT22;38038;45.922;13.604;2023-05-16T13:07:38;14.60;99.90
52024;DHT22;38038;45.922;13.604;2023-05-16T13:10:06;14.50;99.90
52024;DHT22;38038;45.922;13.604;2023-05-16T13:12:35;14.40;99.90
52024;DHT22;38038;45.922;13.604;2023-05-16T13:15:01;14.30;99.90
52024;DHT22;38038;45.922;13.604;2023-05-16T13:17:27;14.20;99.90
52024;DHT22;38038;45.922;13.604;2023-05-16T13:19:55;14.20;99.90
52024;DHT22;38038;45.922;13.604;2023-05-16T13:22:20;14.10;99.90
52024;DHT22;38038;45.922;13.604;2023-05-16T13:24:46;14.00;99.90
52024;DHT22;38038;45.922;13.604;2023-05-16T13:27:15;14.00;99.90
52024;DHT22;38038;45.922;13.604;2023-05-16T13:29:42;14.00;99.90
52024;DHT22;38038;45.922;13.604;2023-05-16T13:32:08;14.00;99.90
52024;DHT22;38038;45.922;13.604;2023-05-16T13:34:34;14.10;99.90
52024;DHT22;38038;45.922;13.604;2023-05-16T13:36:59;14.10;99.90
52024;DHT22;38038;45.922;13.604;2023-05-16T13:39:25;14.20;99.90
52024;DHT22;38038;45.922;13.604;2023-05-16T13:41:51;14.10;99.90
52024;DHT22;38038;45.922;13.604;2023-05-16T13:44:17;14.20;99.90
52024;DHT22;38038;45.922;13.604;2023-05-16T13:46:43;14.20;99.90
52024;DHT22;38038;45.922;13.604;2023-05-16T13:49:09;14.20;99.90
52024;DHT22;38038;45.922;13.604;2023-05-16T13:51:35;14.30;99.90
52024;DHT22;38038;45.922;13.604;2023-05-16T13:54:00;14.40;99.90
52024;DHT22;38038;45.922;13.604;2023-05-16T13:56:26;14.40;99.90
52024;DHT22;38038;45.922;13.604;2023-05-16T13:58:52;14.30;99.90
52024;DHT22;38038;45.922;13.604;2023-05-16T14:01:17;14.30;99.90
52024;DHT22;38038;45.922;13.604;2023-05-16T14:03:43;14.40;99.90
52024;DHT22;38038;45.922;13.604;2023-05-16T14:06:09;14.20;99.90
52024;DHT22;38038;45.922;13.604;2023-05-16T14:08:35;14.10;99.90
52024;DHT22;38038;45.922;13.604;2023-05-16T14:11:00;13.90;99.90
52024;DHT22;38038;45.922;13.604;2023-05-16T14:13:26;13.90;99.90
52024;DHT22;38038;45.922;13.604;2023-05-16T14:15:52;13.80;99.90
52024;DHT22;38038;45.922;13.604;2023-05-16T14:18:17;13.80;99.90
52024;DHT22;38038;45.922;13.604;2023-05-16T14:20:43;13.70;99.90
52024;DHT22;38038;45.922;13.604;2023-05-16T14:23:09;13.60;99.90
52024;DHT22;38038;45.922;13.604;2023-05-16T14:25:35;13.60;99.90
52024;DHT22;38038;45.922;13.604;2023-05-16T14:28:00;13.50;99.90
52024;DHT22;38038;45.922;13.604;2023-05-16T14:30:26;13.40;99.90
52024;DHT22;38038;45.922;13.604;2023-05-16T14:32:52;13.40;99.90
52024;DHT22;38038;45.922;13.604;2023-05-16T14:35:17;13.40;99.90
52024;DHT22;38038;45.922;13.604;2023-05-16T14:37:43;13.40;99.90
52024;DHT22;38038;45.922;13.604;2023-05-16T14:40:09;13.30;99.90
52024;DHT22;38038;45.922;13.604;2023-05-16T14:42:35;13.20;99.90
52024;DHT22;38038;45.922;13.604;2023-05-16T14:45:00;13.10;99.90
52024;DHT22;38038;45.922;13.604;2023-05-16T14:47:26;13.10;99.90
52024;DHT22;38038;45.922;13.604;2023-05-16T14:49:53;13.30;99.90
52024;DHT22;38038;45.922;13.604;2023-05-16T14:52:19;13.30;99.90
52024;DHT22;38038;45.922;13.604;2023-05-16T14:54:45;13.40;99.90
52024;DHT22;38038;45.922;13.604;2023-05-16T14:57:10;13.30;99.90
52024;DHT22;38038;45.922;13.604;2023-05-16T14:59:36;13.20;99.90
52024;DHT22;38038;45.922;13.604;2023-05-16T15:02:02;13.20;99.90
52024;DHT22;38038;45.922;13.604;2023-05-16T15:04:28;13.20;99.90
52024;DHT22;38038;45.922;13.604;2023-05-16T15:06:54;13.10;99.90
52024;DHT22;38038;45.922;13.604;2023-05-16T15:09:20;13.20;99.90
52024;DHT22;38038;45.922;13.604;2023-05-16T15:11:46;13.60;99.90
52024;DHT22;38038;45.922;13.604;2023-05-16T15:14:12;13.60;99.90
52024;DHT22;38038;45.922;13.604;2023-05-16T15:16:37;13.70;99.90
52024;DHT22;38038;45.922;13.604;2023-05-16T15:19:03;13.70;99.90
52024;DHT22;38038;45.922;13.604;2023-05-16T15:21:29;13.80;99.90
52024;DHT22;38038;45.922;13.604;2023-05-16T15:23:57;14.00;99.90
52024;DHT22;38038;45.922;13.604;2023-05-16T15:26:22;14.30;99.90
52024;DHT22;38038;45.922;13.604;2023-05-16T15:28:49;14.40;99.90
52024;DHT22;38038;45.922;13.604;2023-05-16T15:31:15;14.20;99.90
52024;DHT22;38038;45.922;13.604;2023-05-16T15:33:40;14.10;99.90